Hyattsville, MD

9:16 AM EST en Enero 25, 2015 (GMT -0500)
Riverdale Park | Change Station
CLOSE
Current Station
Estación meteorológica personal
Location: Riverdale, MD
Altura: 52 ft
Estaciones meteorológicas cercanas

Alt 52 ft 38.96 °N, 76.94 °W | Updated 10 seconds ago

Overcast
Nublado
41.8 ° F
Sensación térmica 39 ° F
N
5.0
Viento Variable Viento desde Oeste
Gusts 9.0 mph

Hoy
Alta -- | Baja -- ° F
--% Posibilidad de precipitaciones
Ayer
Alta -- | Baja -- ° F
Precip. -- pul
7:19 AM 5:20 PM
Creciente, 32% visible
Presión 29.83 pul
Visibilidad 10.0 Millas
Nubes Nublado 4900 ft
Vientos helados 39 ° F
Punto de rocío 30 ° F
Humedad 63%
Precipitaciones 0.00 pul
Espesor de la nieve No disponible.
UV 0 de una escala de 12
Polen 1.30 de una escala de 12
Calidad del aire No disponible.
Flu Activity No disponible.
METAR KCGS 251355Z AUTO 23003KT 10SM OVC049 05/M02 A2983 RMK AO1

More Conditions Fewer Conditions

Presión 29.83 pul
Visibilidad 10.0 Millas
Nubes Nublado 4900 ft
Vientos helados 39 ° F
Punto de rocío 30 ° F
Humedad 63%
Precipitaciones 0.00 pul
Espesor de la nieve No disponible.
UV 0 de una escala de 12
Polen 1.30 de una escala de 12
Calidad del aire No disponible.
Flu Activity No disponible.
METAR KCGS 251355Z AUTO 23003KT 10SM OVC049 05/M02 A2983 RMK AO1

More Conditions Fewer Conditions

10-Day Weather Forecast

Almanac

Astronomía

Jan. 25, 2015 Salida Puesta
Hora real
Crepúsculo civil
Crepúsculo náutico
Crepúsculo astronómico
Luna
Horas de luz
Horas de luz
Tomorrow will be .
, % of the Moon is Illuminated

Extremos de hoy

Máximos del estado Bajos del estado

Community

WunderPhotos

Upload Photos

1,789,893 ¡fotos cargadas!

WunderBlogs® & News

Nearby

Calidad del aire

  Calidad del aire Índice AQ Contaminante
Not available.

Grosos de nieve

Estación Profundido Altura

Actividad de terremotos

Ciudad Distance Mag. Tiempo y dato
Magnitud mínima muestra es 2,5.

Temperaturas de aguas costeras

Lugar Temperatura

Estaciones meteorológicas cercanas